Airfield :
LOGIN :

Register | Disclaimer

   EN    FR    IT 

 










Legend :    VFR   Marginal VFR   IFR   Intensive IFR   Very Intensive IFR
Visi :
Ceiling :
>= 8 km
>= 3000ft
5 to 8 km
1000 to 3000 ft
1500m to 5 km
500 to 1000 ft
800 to 1500m
200 to 500 ft
< 800m
< 200 ft
Symbols :   Thunderstorms  Fog  Heavy snow  Heavy precipitations  Wind > 20 kt
SIGMETs :     Misc.  Thunderstorms  Icing  Turbulence  Mountain Waves  Volcanic Ashes






- Airport Elevation : 195 ft


LFMY - Salon de Provence

CURRENT METAR :
  • 280800Z AUTO 03007KT 9999 NSC 13/07 Q1010

EXPIRED METARs :
  • 280730Z AUTO 07010G21KT 020V100 9999 NSC 12/07 Q1010
  • 280700Z AUTO 05005KT 350V100 9999 NSC 13/08 Q1010
  • 280630Z AUTO 05006KT 320V090 9999 NSC 11/07 Q1010
  • 280600Z AUTO 01007KT 9999 NSC 12/08 Q1010
  • 280530Z AUTO 06008KT 9999 NSC 14/08 Q1010

TAF TAF LFMY
Valid from the 27 at 15:00 until the 28 at 15:00 UTC


271400Z 2715/2815 09010KT CAVOK TX17/2725Z TN12/2806Z
TEMPO 2715/2812 09015G25KT
PROB40
TEMPO 2803/2813 RA
BECMG 2813/2815 35010KT



MET'MAP, your aeronautical weather chart ! - Copyright ORBIFLY December 2007 - Disclaimer

ORBIFLY MET'MAP TEAM :

Programming & Development : Alexandra Zaïnal
Concept & original design : Baudouin d'Aumeries
Assistance for programming : Marc-Olivier Méhu
Technical & hardware support : Manuel Goepfert

Contact : metmap@orbifly.com




SOURCES & CREDITS :

   NOAA